sensor_id;sensor_type;location;lat;lon;timestamp;temperature;humidity
34829;DHT22;21042;47.620;12.188;2023-06-22T00:01:20;18.60;99.90
34829;DHT22;21042;47.620;12.188;2023-06-22T00:03:49;18.60;99.90
34829;DHT22;21042;47.620;12.188;2023-06-22T00:06:16;18.60;99.90
34829;DHT22;21042;47.620;12.188;2023-06-22T00:08:43;18.60;99.90
34829;DHT22;21042;47.620;12.188;2023-06-22T00:11:10;18.60;99.90
34829;DHT22;21042;47.620;12.188;2023-06-22T00:13:37;18.60;99.90
34829;DHT22;21042;47.620;12.188;2023-06-22T00:16:04;18.60;99.90
34829;DHT22;21042;47.620;12.188;2023-06-22T00:18:31;18.70;99.90
34829;DHT22;21042;47.620;12.188;2023-06-22T00:20:59;18.70;99.90
34829;DHT22;21042;47.620;12.188;2023-06-22T00:23:26;18.80;99.90
34829;DHT22;21042;47.620;12.188;2023-06-22T00:25:53;18.80;99.90
34829;DHT22;21042;47.620;12.188;2023-06-22T00:28:20;18.80;99.90
34829;DHT22;21042;47.620;12.188;2023-06-22T00:30:48;18.80;99.90
34829;DHT22;21042;47.620;12.188;2023-06-22T00:33:15;18.80;99.90
34829;DHT22;21042;47.620;12.188;2023-06-22T00:35:43;18.70;99.90
34829;DHT22;21042;47.620;12.188;2023-06-22T00:38:10;18.70;99.90
34829;DHT22;21042;47.620;12.188;2023-06-22T00:40:37;18.70;99.90
34829;DHT22;21042;47.620;12.188;2023-06-22T00:43:05;18.70;99.90
34829;DHT22;21042;47.620;12.188;2023-06-22T00:45:32;18.60;99.90
34829;DHT22;21042;47.620;12.188;2023-06-22T00:47:59;18.60;99.90
34829;DHT22;21042;47.620;12.188;2023-06-22T00:50:32;18.60;99.90
34829;DHT22;21042;47.620;12.188;2023-06-22T00:53:06;18.50;99.90
34829;DHT22;21042;47.620;12.188;2023-06-22T00:55:36;18.50;99.90
34829;DHT22;21042;47.620;12.188;2023-06-22T00:58:06;18.40;99.90
34829;DHT22;21042;47.620;12.188;2023-06-22T01:00:38;18.50;99.90
34829;DHT22;21042;47.620;12.188;2023-06-22T01:03:05;18.40;99.90
34829;DHT22;21042;47.620;12.188;2023-06-22T01:05:36;18.50;99.90
34829;DHT22;21042;47.620;12.188;2023-06-22T01:10:41;18.50;99.90
34829;DHT22;21042;47.620;12.188;2023-06-22T01:13:41;18.50;99.90
34829;DHT22;21042;47.620;12.188;2023-06-22T01:16:20;18.50;99.90
34829;DHT22;21042;47.620;12.188;2023-06-22T01:18:52;18.50;99.90
34829;DHT22;21042;47.620;12.188;2023-06-22T01:21:20;18.50;99.90
34829;DHT22;21042;47.620;12.188;2023-06-22T01:24:24;18.50;99.90
34829;DHT22;21042;47.620;12.188;2023-06-22T01:29:37;18.40;99.90
34829;DHT22;21042;47.620;12.188;2023-06-22T01:32:06;18.30;99.90
34829;DHT22;21042;47.620;12.188;2023-06-22T01:34:36;18.20;99.90
34829;DHT22;21042;47.620;12.188;2023-06-22T01:37:04;18.30;99.90
34829;DHT22;21042;47.620;12.188;2023-06-22T01:39:31;18.20;99.90
34829;DHT22;21042;47.620;12.188;2023-06-22T01:41:59;18.20;99.90
34829;DHT22;21042;47.620;12.188;2023-06-22T01:44:26;18.30;99.90
34829;DHT22;21042;47.620;12.188;2023-06-22T01:46:54;18.20;99.90
34829;DHT22;21042;47.620;12.188;2023-06-22T01:49:21;18.20;99.90
34829;DHT22;21042;47.620;12.188;2023-06-22T01:51:48;18.20;99.90
34829;DHT22;21042;47.620;12.188;2023-06-22T01:54:15;18.20;99.90
34829;DHT22;21042;47.620;12.188;2023-06-22T01:56:42;18.20;99.90
34829;DHT22;21042;47.620;12.188;2023-06-22T01:59:22;18.20;99.90
34829;DHT22;21042;47.620;12.188;2023-06-22T02:02:01;18.20;99.90
34829;DHT22;21042;47.620;12.188;2023-06-22T02:04:36;18.20;99.90
34829;DHT22;21042;47.620;12.188;2023-06-22T02:07:07;18.10;99.90
34829;DHT22;21042;47.620;12.188;2023-06-22T02:09:37;18.20;99.90
34829;DHT22;21042;47.620;12.188;2023-06-22T02:12:06;18.00;99.90
34829;DHT22;21042;47.620;12.188;2023-06-22T02:14:34;18.00;99.90
34829;DHT22;21042;47.620;12.188;2023-06-22T02:17:02;18.00;99.90
34829;DHT22;21042;47.620;12.188;2023-06-22T02:19:38;18.00;99.90
34829;DHT22;21042;47.620;12.188;2023-06-22T02:22:05;18.00;99.90
34829;DHT22;21042;47.620;12.188;2023-06-22T02:24:32;18.00;99.90
34829;DHT22;21042;47.620;12.188;2023-06-22T02:27:00;17.90;99.90
34829;DHT22;21042;47.620;12.188;2023-06-22T02:29:28;17.90;99.90
34829;DHT22;21042;47.620;12.188;2023-06-22T02:31:55;17.90;99.90
34829;DHT22;21042;47.620;12.188;2023-06-22T02:34:22;17.90;99.90
34829;DHT22;21042;47.620;12.188;2023-06-22T02:36:50;18.00;99.90
34829;DHT22;21042;47.620;12.188;2023-06-22T02:39:25;17.90;99.90
34829;DHT22;21042;47.620;12.188;2023-06-22T02:41:53;17.90;99.90
34829;DHT22;21042;47.620;12.188;2023-06-22T02:44:22;17.90;99.90
34829;DHT22;21042;47.620;12.188;2023-06-22T02:46:48;17.90;99.90
34829;DHT22;21042;47.620;12.188;2023-06-22T02:49:16;17.90;99.90
34829;DHT22;21042;47.620;12.188;2023-06-22T02:51:47;17.90;99.90
34829;DHT22;21042;47.620;12.188;2023-06-22T02:54:16;17.90;99.90
34829;DHT22;21042;47.620;12.188;2023-06-22T02:56:45;17.90;99.90
34829;DHT22;21042;47.620;12.188;2023-06-22T02:59:12;17.90;99.90
34829;DHT22;21042;47.620;12.188;2023-06-22T03:01:39;17.80;99.90
34829;DHT22;21042;47.620;12.188;2023-06-22T03:04:18;17.80;99.90
34829;DHT22;21042;47.620;12.188;2023-06-22T03:06:45;17.70;99.90
34829;DHT22;21042;47.620;12.188;2023-06-22T03:09:18;17.70;99.90
34829;DHT22;21042;47.620;12.188;2023-06-22T03:11:45;17.80;99.90
34829;DHT22;21042;47.620;12.188;2023-06-22T03:14:12;17.80;99.90
34829;DHT22;21042;47.620;12.188;2023-06-22T03:16:38;17.80;99.90
34829;DHT22;21042;47.620;12.188;2023-06-22T03:19:07;17.70;99.90
34829;DHT22;21042;47.620;12.188;2023-06-22T03:21:34;17.70;99.90
34829;DHT22;21042;47.620;12.188;2023-06-22T03:24:01;17.80;99.90
34829;DHT22;21042;47.620;12.188;2023-06-22T03:26:28;17.80;99.90
34829;DHT22;21042;47.620;12.188;2023-06-22T03:28:56;17.80;99.90
34829;DHT22;21042;47.620;12.188;2023-06-22T03:31:23;17.80;99.90
34829;DHT22;21042;47.620;12.188;2023-06-22T03:33:50;17.80;99.90
34829;DHT22;21042;47.620;12.188;2023-06-22T03:36:18;17.80;99.90
34829;DHT22;21042;47.620;12.188;2023-06-22T03:38:49;17.80;99.90
34829;DHT22;21042;47.620;12.188;2023-06-22T03:41:16;17.90;99.90
34829;DHT22;21042;47.620;12.188;2023-06-22T03:43:43;17.90;99.90
34829;DHT22;21042;47.620;12.188;2023-06-22T03:46:10;17.90;99.90
34829;DHT22;21042;47.620;12.188;2023-06-22T03:48:38;18.00;99.90
34829;DHT22;21042;47.620;12.188;2023-06-22T03:51:06;18.00;99.90
34829;DHT22;21042;47.620;12.188;2023-06-22T03:53:33;18.00;99.90
34829;DHT22;21042;47.620;12.188;2023-06-22T03:55:59;18.00;99.90
34829;DHT22;21042;47.620;12.188;2023-06-22T03:58:26;18.00;99.90
34829;DHT22;21042;47.620;12.188;2023-06-22T04:00:53;18.10;99.90
34829;DHT22;21042;47.620;12.188;2023-06-22T04:03:20;18.10;99.90
34829;DHT22;21042;47.620;12.188;2023-06-22T04:05:47;18.10;99.90
34829;DHT22;21042;47.620;12.188;2023-06-22T04:08:15;18.20;99.90
34829;DHT22;21042;47.620;12.188;2023-06-22T04:10:42;18.20;99.90
34829;DHT22;21042;47.620;12.188;2023-06-22T04:13:09;18.30;99.90
34829;DHT22;21042;47.620;12.188;2023-06-22T04:15:36;18.30;99.90
34829;DHT22;21042;47.620;12.188;2023-06-22T04:18:03;18.40;99.90
34829;DHT22;21042;47.620;12.188;2023-06-22T04:20:31;18.50;99.90
34829;DHT22;21042;47.620;12.188;2023-06-22T04:22:59;18.50;99.90
34829;DHT22;21042;47.620;12.188;2023-06-22T04:25:26;18.60;99.90
34829;DHT22;21042;47.620;12.188;2023-06-22T04:27:52;18.60;99.90
34829;DHT22;21042;47.620;12.188;2023-06-22T04:30:19;18.70;99.90
34829;DHT22;21042;47.620;12.188;2023-06-22T04:32:46;18.70;99.90
34829;DHT22;21042;47.620;12.188;2023-06-22T04:35:23;18.80;99.90
34829;DHT22;21042;47.620;12.188;2023-06-22T04:37:50;18.80;99.90
34829;DHT22;21042;47.620;12.188;2023-06-22T04:40:22;18.80;99.90
34829;DHT22;21042;47.620;12.188;2023-06-22T04:42:49;18.90;99.90
34829;DHT22;21042;47.620;12.188;2023-06-22T04:45:20;18.90;99.90
34829;DHT22;21042;47.620;12.188;2023-06-22T04:47:48;19.00;99.90
34829;DHT22;21042;47.620;12.188;2023-06-22T04:50:15;19.10;99.90
34829;DHT22;21042;47.620;12.188;2023-06-22T04:52:42;19.10;99.90
34829;DHT22;21042;47.620;12.188;2023-06-22T04:55:08;19.00;99.90
34829;DHT22;21042;47.620;12.188;2023-06-22T04:57:35;19.00;99.90
34829;DHT22;21042;47.620;12.188;2023-06-22T05:00:06;19.00;99.90
34829;DHT22;21042;47.620;12.188;2023-06-22T05:02:39;19.10;99.90
34829;DHT22;21042;47.620;12.188;2023-06-22T05:05:06;19.30;99.90
34829;DHT22;21042;47.620;12.188;2023-06-22T05:07:34;19.30;99.90
34829;DHT22;21042;47.620;12.188;2023-06-22T05:10:02;19.40;99.90
34829;DHT22;21042;47.620;12.188;2023-06-22T05:12:29;19.40;99.90
34829;DHT22;21042;47.620;12.188;2023-06-22T05:14:57;19.50;99.90
34829;DHT22;21042;47.620;12.188;2023-06-22T05:17:24;19.60;99.90
34829;DHT22;21042;47.620;12.188;2023-06-22T05:19:51;19.70;99.90
34829;DHT22;21042;47.620;12.188;2023-06-22T05:22:18;19.80;99.90
34829;DHT22;21042;47.620;12.188;2023-06-22T05:24:46;19.80;99.90
34829;DHT22;21042;47.620;12.188;2023-06-22T05:27:13;19.90;99.90
34829;DHT22;21042;47.620;12.188;2023-06-22T05:29:40;20.00;99.90
34829;DHT22;21042;47.620;12.188;2023-06-22T05:32:07;20.10;99.90
34829;DHT22;21042;47.620;12.188;2023-06-22T05:34:34;20.20;99.90
34829;DHT22;21042;47.620;12.188;2023-06-22T05:37:01;20.30;99.90
34829;DHT22;21042;47.620;12.188;2023-06-22T05:39:28;20.20;99.90
34829;DHT22;21042;47.620;12.188;2023-06-22T05:41:55;20.10;99.90
34829;DHT22;21042;47.620;12.188;2023-06-22T05:44:21;20.10;99.90
34829;DHT22;21042;47.620;12.188;2023-06-22T05:46:48;20.10;99.90
34829;DHT22;21042;47.620;12.188;2023-06-22T05:49:15;20.20;99.90
34829;DHT22;21042;47.620;12.188;2023-06-22T05:51:42;20.20;99.90
34829;DHT22;21042;47.620;12.188;2023-06-22T05:54:09;20.60;99.90
34829;DHT22;21042;47.620;12.188;2023-06-22T05:56:36;20.20;99.90
34829;DHT22;21042;47.620;12.188;2023-06-22T05:59:04;20.10;99.90
34829;DHT22;21042;47.620;12.188;2023-06-22T06:01:30;20.00;99.90
34829;DHT22;21042;47.620;12.188;2023-06-22T06:04:03;19.90;99.90
34829;DHT22;21042;47.620;12.188;2023-06-22T06:06:35;19.80;99.90
34829;DHT22;21042;47.620;12.188;2023-06-22T06:09:04;19.90;99.90
34829;DHT22;21042;47.620;12.188;2023-06-22T06:11:31;19.90;99.90
34829;DHT22;21042;47.620;12.188;2023-06-22T06:13:58;19.90;99.90
34829;DHT22;21042;47.620;12.188;2023-06-22T06:16:25;20.00;99.90
34829;DHT22;21042;47.620;12.188;2023-06-22T06:18:51;20.10;99.90
34829;DHT22;21042;47.620;12.188;2023-06-22T06:21:20;20.20;99.90
34829;DHT22;21042;47.620;12.188;2023-06-22T06:23:46;20.20;99.90
34829;DHT22;21042;47.620;12.188;2023-06-22T06:26:13;20.30;99.90
34829;DHT22;21042;47.620;12.188;2023-06-22T06:28:43;20.50;99.90
34829;DHT22;21042;47.620;12.188;2023-06-22T06:31:10;20.50;99.90
34829;DHT22;21042;47.620;12.188;2023-06-22T06:33:39;20.80;99.90
34829;DHT22;21042;47.620;12.188;2023-06-22T06:36:05;20.90;99.90
34829;DHT22;21042;47.620;12.188;2023-06-22T06:38:34;20.90;99.90
34829;DHT22;21042;47.620;12.188;2023-06-22T06:41:01;21.10;99.90
34829;DHT22;21042;47.620;12.188;2023-06-22T06:43:28;21.20;99.90
34829;DHT22;21042;47.620;12.188;2023-06-22T06:45:55;21.30;99.90
34829;DHT22;21042;47.620;12.188;2023-06-22T06:48:22;21.50;99.90
34829;DHT22;21042;47.620;12.188;2023-06-22T06:50:48;21.70;99.90
34829;DHT22;21042;47.620;12.188;2023-06-22T06:53:16;21.70;99.90
34829;DHT22;21042;47.620;12.188;2023-06-22T06:55:43;21.90;99.90
34829;DHT22;21042;47.620;12.188;2023-06-22T06:58:12;22.00;99.90
34829;DHT22;21042;47.620;12.188;2023-06-22T07:00:39;22.00;99.90
34829;DHT22;21042;47.620;12.188;2023-06-22T07:03:06;22.30;99.90
34829;DHT22;21042;47.620;12.188;2023-06-22T07:05:33;22.40;99.90
34829;DHT22;21042;47.620;12.188;2023-06-22T07:08:01;22.50;99.90
34829;DHT22;21042;47.620;12.188;2023-06-22T07:10:28;22.50;99.90
34829;DHT22;21042;47.620;12.188;2023-06-22T07:12:56;22.60;99.90
34829;DHT22;21042;47.620;12.188;2023-06-22T07:15:24;22.70;99.90
34829;DHT22;21042;47.620;12.188;2023-06-22T07:17:50;22.90;99.90
34829;DHT22;21042;47.620;12.188;2023-06-22T07:20:17;23.00;99.90
34829;DHT22;21042;47.620;12.188;2023-06-22T07:22:46;23.10;99.90
34829;DHT22;21042;47.620;12.188;2023-06-22T07:25:13;23.00;99.90
34829;DHT22;21042;47.620;12.188;2023-06-22T07:28:00;23.00;99.90
34829;DHT22;21042;47.620;12.188;2023-06-22T07:30:29;23.20;99.90
34829;DHT22;21042;47.620;12.188;2023-06-22T07:32:57;23.30;99.90
34829;DHT22;21042;47.620;12.188;2023-06-22T07:35:24;23.50;99.90
34829;DHT22;21042;47.620;12.188;2023-06-22T07:37:51;23.60;99.90
34829;DHT22;21042;47.620;12.188;2023-06-22T07:40:18;23.60;99.90
34829;DHT22;21042;47.620;12.188;2023-06-22T07:42:45;23.60;99.90
34829;DHT22;21042;47.620;12.188;2023-06-22T07:45:14;23.70;99.90
34829;DHT22;21042;47.620;12.188;2023-06-22T07:47:41;23.80;99.90
34829;DHT22;21042;47.620;12.188;2023-06-22T07:50:08;24.20;99.90
34829;DHT22;21042;47.620;12.188;2023-06-22T07:52:35;24.30;99.90
34829;DHT22;21042;47.620;12.188;2023-06-22T07:55:02;24.50;99.90
34829;DHT22;21042;47.620;12.188;2023-06-22T07:57:29;24.70;99.90
34829;DHT22;21042;47.620;12.188;2023-06-22T08:00:01;25.00;99.90
34829;DHT22;21042;47.620;12.188;2023-06-22T08:02:38;25.20;99.90
34829;DHT22;21042;47.620;12.188;2023-06-22T08:05:05;25.40;99.90
34829;DHT22;21042;47.620;12.188;2023-06-22T08:07:54;25.40;99.90
34829;DHT22;21042;47.620;12.188;2023-06-22T08:10:21;25.50;99.90
34829;DHT22;21042;47.620;12.188;2023-06-22T08:12:48;25.60;99.90
34829;DHT22;21042;47.620;12.188;2023-06-22T08:15:15;25.70;99.90
34829;DHT22;21042;47.620;12.188;2023-06-22T08:17:42;25.90;99.90
34829;DHT22;21042;47.620;12.188;2023-06-22T08:20:09;26.10;99.90
34829;DHT22;21042;47.620;12.188;2023-06-22T08:22:38;26.20;99.90
34829;DHT22;21042;47.620;12.188;2023-06-22T08:25:05;26.30;99.90
34829;DHT22;21042;47.620;12.188;2023-06-22T08:27:32;26.30;99.90
34829;DHT22;21042;47.620;12.188;2023-06-22T08:30:00;26.40;99.90
34829;DHT22;21042;47.620;12.188;2023-06-22T08:32:27;26.40;99.90
34829;DHT22;21042;47.620;12.188;2023-06-22T08:34:55;26.30;99.90
34829;DHT22;21042;47.620;12.188;2023-06-22T08:37:23;26.40;99.90
34829;DHT22;21042;47.620;12.188;2023-06-22T08:39:59;26.60;99.90
34829;DHT22;21042;47.620;12.188;2023-06-22T08:42:26;26.80;99.90
34829;DHT22;21042;47.620;12.188;2023-06-22T08:44:53;27.00;99.90
34829;DHT22;21042;47.620;12.188;2023-06-22T08:47:20;27.10;99.90
34829;DHT22;21042;47.620;12.188;2023-06-22T08:49:48;27.00;99.90
34829;DHT22;21042;47.620;12.188;2023-06-22T08:52:15;27.20;99.90
34829;DHT22;21042;47.620;12.188;2023-06-22T08:54:42;27.60;99.90
34829;DHT22;21042;47.620;12.188;2023-06-22T08:57:08;27.90;99.90
34829;DHT22;21042;47.620;12.188;2023-06-22T08:59:35;27.90;99.90
34829;DHT22;21042;47.620;12.188;2023-06-22T09:02:02;27.90;99.90
34829;DHT22;21042;47.620;12.188;2023-06-22T09:04:29;28.30;99.90
34829;DHT22;21042;47.620;12.188;2023-06-22T09:06:56;28.20;99.90
34829;DHT22;21042;47.620;12.188;2023-06-22T09:09:23;28.40;99.90
34829;DHT22;21042;47.620;12.188;2023-06-22T09:11:49;28.60;99.90
34829;DHT22;21042;47.620;12.188;2023-06-22T09:14:16;28.80;99.90
34829;DHT22;21042;47.620;12.188;2023-06-22T09:16:43;28.60;99.90
34829;DHT22;21042;47.620;12.188;2023-06-22T09:19:10;28.40;99.90
34829;DHT22;21042;47.620;12.188;2023-06-22T09:21:36;28.30;99.90
34829;DHT22;21042;47.620;12.188;2023-06-22T09:24:03;28.60;99.90
34829;DHT22;21042;47.620;12.188;2023-06-22T09:26:30;28.80;99.90
34829;DHT22;21042;47.620;12.188;2023-06-22T09:28:57;28.80;99.90
34829;DHT22;21042;47.620;12.188;2023-06-22T09:31:24;28.60;99.90
34829;DHT22;21042;47.620;12.188;2023-06-22T09:33:54;28.90;99.90
34829;DHT22;21042;47.620;12.188;2023-06-22T09:36:21;29.10;99.90
34829;DHT22;21042;47.620;12.188;2023-06-22T09:38:48;29.20;99.90
34829;DHT22;21042;47.620;12.188;2023-06-22T09:41:22;29.20;99.90
34829;DHT22;21042;47.620;12.188;2023-06-22T09:43:49;29.50;99.90
34829;DHT22;21042;47.620;12.188;2023-06-22T09:46:16;29.80;99.90
34829;DHT22;21042;47.620;12.188;2023-06-22T09:48:43;29.90;99.90
34829;DHT22;21042;47.620;12.188;2023-06-22T09:51:11;29.90;99.90
34829;DHT22;21042;47.620;12.188;2023-06-22T09:53:38;30.00;99.90
34829;DHT22;21042;47.620;12.188;2023-06-22T09:56:04;30.00;99.90
34829;DHT22;21042;47.620;12.188;2023-06-22T09:58:32;30.10;99.90
34829;DHT22;21042;47.620;12.188;2023-06-22T10:00:59;30.30;99.70
34829;DHT22;21042;47.620;12.188;2023-06-22T10:03:26;30.30;98.80
34829;DHT22;21042;47.620;12.188;2023-06-22T10:05:53;30.10;99.40
34829;DHT22;21042;47.620;12.188;2023-06-22T10:08:20;30.00;98.90
34829;DHT22;21042;47.620;12.188;2023-06-22T10:10:46;29.70;98.10
34829;DHT22;21042;47.620;12.188;2023-06-22T10:13:13;29.50;98.80
34829;DHT22;21042;47.620;12.188;2023-06-22T10:15:42;29.40;98.50
34829;DHT22;21042;47.620;12.188;2023-06-22T10:18:09;29.50;98.70
34829;DHT22;21042;47.620;12.188;2023-06-22T10:20:36;29.70;98.60
34829;DHT22;21042;47.620;12.188;2023-06-22T10:23:03;29.90;98.40
34829;DHT22;21042;47.620;12.188;2023-06-22T10:25:29;30.10;98.10
34829;DHT22;21042;47.620;12.188;2023-06-22T10:27:57;30.00;98.30
34829;DHT22;21042;47.620;12.188;2023-06-22T10:30:23;30.00;98.50
34829;DHT22;21042;47.620;12.188;2023-06-22T10:32:50;29.80;99.20
34829;DHT22;21042;47.620;12.188;2023-06-22T10:35:17;30.00;99.50
34829;DHT22;21042;47.620;12.188;2023-06-22T10:37:45;30.10;98.50
34829;DHT22;21042;47.620;12.188;2023-06-22T10:40:13;30.40;97.80
34829;DHT22;21042;47.620;12.188;2023-06-22T10:42:41;30.50;97.40
34829;DHT22;21042;47.620;12.188;2023-06-22T10:45:09;30.80;98.00
34829;DHT22;21042;47.620;12.188;2023-06-22T10:47:36;30.90;97.10
34829;DHT22;21042;47.620;12.188;2023-06-22T10:50:03;31.00;97.00
34829;DHT22;21042;47.620;12.188;2023-06-22T10:52:30;31.00;97.30
34829;DHT22;21042;47.620;12.188;2023-06-22T10:54:57;31.00;97.50
34829;DHT22;21042;47.620;12.188;2023-06-22T10:57:24;30.90;96.10
34829;DHT22;21042;47.620;12.188;2023-06-22T10:59:51;30.90;96.30
34829;DHT22;21042;47.620;12.188;2023-06-22T11:02:17;31.20;95.40
34829;DHT22;21042;47.620;12.188;2023-06-22T11:04:44;31.40;95.20
34829;DHT22;21042;47.620;12.188;2023-06-22T11:07:13;31.90;95.30
34829;DHT22;21042;47.620;12.188;2023-06-22T11:09:40;32.20;94.90
34829;DHT22;21042;47.620;12.188;2023-06-22T11:12:07;32.20;95.40
34829;DHT22;21042;47.620;12.188;2023-06-22T11:14:34;31.90;95.20
34829;DHT22;21042;47.620;12.188;2023-06-22T11:17:00;31.80;94.90
34829;DHT22;21042;47.620;12.188;2023-06-22T11:19:27;31.90;94.70
34829;DHT22;21042;47.620;12.188;2023-06-22T11:21:54;31.70;94.50
34829;DHT22;21042;47.620;12.188;2023-06-22T11:24:21;31.90;94.30
34829;DHT22;21042;47.620;12.188;2023-06-22T11:26:48;32.10;93.20
34829;DHT22;21042;47.620;12.188;2023-06-22T11:29:15;32.20;93.20
34829;DHT22;21042;47.620;12.188;2023-06-22T11:31:58;32.40;93.70
34829;DHT22;21042;47.620;12.188;2023-06-22T11:34:24;32.90;92.10
34829;DHT22;21042;47.620;12.188;2023-06-22T11:36:51;33.30;91.30
34829;DHT22;21042;47.620;12.188;2023-06-22T11:39:18;33.30;91.60
34829;DHT22;21042;47.620;12.188;2023-06-22T11:41:55;33.10;91.20
34829;DHT22;21042;47.620;12.188;2023-06-22T11:44:22;32.90;90.90
34829;DHT22;21042;47.620;12.188;2023-06-22T11:46:49;32.70;90.30
34829;DHT22;21042;47.620;12.188;2023-06-22T11:49:15;32.50;90.80
34829;DHT22;21042;47.620;12.188;2023-06-22T11:51:42;32.20;89.50
34829;DHT22;21042;47.620;12.188;2023-06-22T11:54:09;32.00;90.40
34829;DHT22;21042;47.620;12.188;2023-06-22T11:56:36;31.80;88.60
34829;DHT22;21042;47.620;12.188;2023-06-22T11:59:02;31.80;90.30
34829;DHT22;21042;47.620;12.188;2023-06-22T12:01:29;31.90;89.00
34829;DHT22;21042;47.620;12.188;2023-06-22T12:03:56;32.00;89.10
34829;DHT22;21042;47.620;12.188;2023-06-22T12:06:23;32.40;90.50
34829;DHT22;21042;47.620;12.188;2023-06-22T12:08:50;32.70;90.40
34829;DHT22;21042;47.620;12.188;2023-06-22T12:11:17;32.50;90.20
34829;DHT22;21042;47.620;12.188;2023-06-22T12:13:44;32.00;89.90
34829;DHT22;21042;47.620;12.188;2023-06-22T12:16:11;32.10;90.80
34829;DHT22;21042;47.620;12.188;2023-06-22T12:18:38;32.80;90.40
34829;DHT22;21042;47.620;12.188;2023-06-22T12:21:05;33.50;89.40
34829;DHT22;21042;47.620;12.188;2023-06-22T12:23:32;33.90;83.10
34829;DHT22;21042;47.620;12.188;2023-06-22T12:25:59;34.20;83.40
34829;DHT22;21042;47.620;12.188;2023-06-22T12:28:26;33.80;84.50
34829;DHT22;21042;47.620;12.188;2023-06-22T12:30:53;33.40;86.50
34829;DHT22;21042;47.620;12.188;2023-06-22T12:33:20;33.20;88.50
34829;DHT22;21042;47.620;12.188;2023-06-22T12:35:46;32.80;86.70
34829;DHT22;21042;47.620;12.188;2023-06-22T12:38:15;32.60;86.50
34829;DHT22;21042;47.620;12.188;2023-06-22T12:40:42;32.50;87.20
34829;DHT22;21042;47.620;12.188;2023-06-22T12:43:09;32.40;87.00
34829;DHT22;21042;47.620;12.188;2023-06-22T12:45:35;32.20;89.10
34829;DHT22;21042;47.620;12.188;2023-06-22T12:48:02;32.00;88.70
34829;DHT22;21042;47.620;12.188;2023-06-22T12:50:29;31.90;89.50
34829;DHT22;21042;47.620;12.188;2023-06-22T12:52:56;31.90;90.10
34829;DHT22;21042;47.620;12.188;2023-06-22T12:55:23;32.00;90.00
34829;DHT22;21042;47.620;12.188;2023-06-22T12:57:50;32.20;87.80
34829;DHT22;21042;47.620;12.188;2023-06-22T13:00:17;32.30;88.20
34829;DHT22;21042;47.620;12.188;2023-06-22T13:02:44;32.30;87.60
34829;DHT22;21042;47.620;12.188;2023-06-22T13:05:11;32.60;87.40
34829;DHT22;21042;47.620;12.188;2023-06-22T13:07:38;33.00;90.70
34829;DHT22;21042;47.620;12.188;2023-06-22T13:10:05;33.30;87.80
34829;DHT22;21042;47.620;12.188;2023-06-22T13:12:32;33.30;85.40
34829;DHT22;21042;47.620;12.188;2023-06-22T13:14:58;33.60;83.60
34829;DHT22;21042;47.620;12.188;2023-06-22T13:17:25;33.70;83.60
34829;DHT22;21042;47.620;12.188;2023-06-22T13:19:52;33.90;81.80
34829;DHT22;21042;47.620;12.188;2023-06-22T13:22:45;34.30;82.70
34829;DHT22;21042;47.620;12.188;2023-06-22T13:25:12;34.10;80.20
34829;DHT22;21042;47.620;12.188;2023-06-22T13:27:40;34.10;81.40
34829;DHT22;21042;47.620;12.188;2023-06-22T13:30:09;34.10;79.90
34829;DHT22;21042;47.620;12.188;2023-06-22T13:32:40;34.30;79.70
34829;DHT22;21042;47.620;12.188;2023-06-22T13:35:09;34.50;78.40
34829;DHT22;21042;47.620;12.188;2023-06-22T13:37:36;34.60;77.70
34829;DHT22;21042;47.620;12.188;2023-06-22T13:40:05;34.60;78.70
34829;DHT22;21042;47.620;12.188;2023-06-22T13:42:33;34.60;80.20
34829;DHT22;21042;47.620;12.188;2023-06-22T13:45:00;34.70;80.00
34829;DHT22;21042;47.620;12.188;2023-06-22T13:47:26;34.60;79.20
34829;DHT22;21042;47.620;12.188;2023-06-22T13:49:56;34.60;79.70
34829;DHT22;21042;47.620;12.188;2023-06-22T13:52:24;34.50;80.20
34829;DHT22;21042;47.620;12.188;2023-06-22T13:54:51;34.40;79.40
34829;DHT22;21042;47.620;12.188;2023-06-22T13:57:18;34.30;80.30
34829;DHT22;21042;47.620;12.188;2023-06-22T13:59:45;34.30;80.00
34829;DHT22;21042;47.620;12.188;2023-06-22T14:02:12;34.20;80.20
34829;DHT22;21042;47.620;12.188;2023-06-22T14:04:38;34.20;81.40
34829;DHT22;21042;47.620;12.188;2023-06-22T14:07:05;34.20;81.70
34829;DHT22;21042;47.620;12.188;2023-06-22T14:09:32;34.10;81.90
34829;DHT22;21042;47.620;12.188;2023-06-22T14:12:03;34.20;81.00
34829;DHT22;21042;47.620;12.188;2023-06-22T14:14:31;34.20;81.30
34829;DHT22;21042;47.620;12.188;2023-06-22T14:16:59;34.20;80.60
34829;DHT22;21042;47.620;12.188;2023-06-22T14:19:25;34.10;79.90
34829;DHT22;21042;47.620;12.188;2023-06-22T14:21:52;34.20;84.20
34829;DHT22;21042;47.620;12.188;2023-06-22T14:24:19;34.40;87.80
34829;DHT22;21042;47.620;12.188;2023-06-22T14:26:50;34.40;85.60
34829;DHT22;21042;47.620;12.188;2023-06-22T14:29:16;34.50;85.00
34829;DHT22;21042;47.620;12.188;2023-06-22T14:31:46;34.80;90.40
34829;DHT22;21042;47.620;12.188;2023-06-22T14:34:14;34.90;89.60
34829;DHT22;21042;47.620;12.188;2023-06-22T14:36:41;34.90;91.00
34829;DHT22;21042;47.620;12.188;2023-06-22T14:39:09;35.10;88.50
34829;DHT22;21042;47.620;12.188;2023-06-22T14:41:36;35.20;84.60
34829;DHT22;21042;47.620;12.188;2023-06-22T14:44:03;35.40;84.80
34829;DHT22;21042;47.620;12.188;2023-06-22T14:46:29;35.50;85.20
34829;DHT22;21042;47.620;12.188;2023-06-22T14:48:56;35.60;84.90
34829;DHT22;21042;47.620;12.188;2023-06-22T14:51:23;35.60;84.30
34829;DHT22;21042;47.620;12.188;2023-06-22T14:53:50;35.70;81.50
34829;DHT22;21042;47.620;12.188;2023-06-22T14:56:17;35.50;81.30
34829;DHT22;21042;47.620;12.188;2023-06-22T14:58:44;35.60;82.60
34829;DHT22;21042;47.620;12.188;2023-06-22T15:01:16;35.70;83.40
34829;DHT22;21042;47.620;12.188;2023-06-22T15:03:43;35.80;82.30
34829;DHT22;21042;47.620;12.188;2023-06-22T15:06:10;35.60;82.80
34829;DHT22;21042;47.620;12.188;2023-06-22T15:08:38;35.50;85.10
34829;DHT22;21042;47.620;12.188;2023-06-22T15:11:05;35.80;85.40
34829;DHT22;21042;47.620;12.188;2023-06-22T15:13:32;35.80;81.70
34829;DHT22;21042;47.620;12.188;2023-06-22T15:16:01;35.80;82.70
34829;DHT22;21042;47.620;12.188;2023-06-22T15:18:30;36.10;82.60
34829;DHT22;21042;47.620;12.188;2023-06-22T15:20:57;36.20;82.30
34829;DHT22;21042;47.620;12.188;2023-06-22T15:23:25;36.00;81.20
34829;DHT22;21042;47.620;12.188;2023-06-22T15:25:52;35.80;82.50